Time;durP1;ratioP1;P1;durP2;ratioP2;P2;SDS_P1;SDS_P2;PMS_P1;PMS_P2;Temp;Humidity;BMP_temperature;BMP_pressure;BME280_temperature;BME280_humidity;BME280_pressure;Samples;Min_cycle;Max_cycle;Signal;HPM_P1;HPM_P2
2023/01/24 00:01:18;;;;;;;15.10;9.87;;;6.60;67.70;;;;;;5114227;28;20436;-68
2023/01/24 00:03:44;;;;;;;17.87;10.43;;;6.50;67.70;;;;;;5115469;28;20429;-68
2023/01/24 00:06:09;;;;;;;14.80;9.17;;;6.50;67.70;;;;;;5112130;28;20150;-67
2023/01/24 00:08:35;;;;;;;16.00;9.50;;;6.50;67.70;;;;;;5108165;28;20022;-68
2023/01/24 00:11:03;;;;;;;16.53;9.43;;;6.50;67.80;;;;;;5117739;28;20394;-68
2023/01/24 00:13:30;;;;;;;14.03;9.23;;;6.40;67.70;;;;;;5115396;28;20016;-68
2023/01/24 00:16:22;;;;;;;16.47;10.40;;;6.40;67.70;;;;;;5116768;28;20035;-68
2023/01/24 00:18:50;;;;;;;;;;;6.50;67.70;;;;;;5106878;28;20073;-67
2023/01/24 00:21:21;;;;;;;13.60;8.03;;;6.40;67.70;;;;;;5116521;28;19911;-68
2023/01/24 00:23:52;;;;;;;13.32;8.20;;;6.40;67.80;;;;;;5115603;28;20055;-68
2023/01/24 00:26:20;;;;;;;14.60;8.45;;;6.40;67.70;;;;;;5099571;28;20023;-68
2023/01/24 00:28:46;;;;;;;15.00;8.87;;;6.50;67.80;;;;;;5110471;28;20034;-67
2023/01/24 00:31:13;;;;;;;15.57;9.50;;;6.50;67.80;;;;;;5107360;28;20035;-68
2023/01/24 00:33:39;;;;;;;14.10;8.57;;;6.50;67.80;;;;;;5115094;28;20129;-68
2023/01/24 00:36:05;;;;;;;14.57;8.67;;;6.50;67.70;;;;;;5115407;28;20032;-68
2023/01/24 00:38:32;;;;;;;13.77;8.70;;;6.50;67.70;;;;;;5113084;28;20077;-68
2023/01/24 00:40:58;;;;;;;15.43;9.00;;;6.50;67.70;;;;;;5116209;28;20456;-68
2023/01/24 00:43:26;;;;;;;13.10;7.83;;;6.50;67.70;;;;;;5117298;28;20048;-68
2023/01/24 00:45:53;;;;;;;13.87;8.60;;;6.50;67.70;;;;;;5115194;28;20023;-68
2023/01/24 00:48:21;;;;;;;14.97;8.87;;;6.40;67.60;;;;;;5110700;28;20111;-68
2023/01/24 00:50:47;;;;;;;15.30;8.53;;;6.40;67.60;;;;;;5113829;28;20031;-68
2023/01/24 00:53:12;;;;;;;14.37;8.20;;;6.40;67.60;;;;;;5116907;28;20028;-68
2023/01/24 00:55:45;;;;;;;12.60;7.70;;;6.40;67.60;;;;;;5113500;28;20024;-68
2023/01/24 00:58:12;;;;;;;13.17;8.60;;;6.30;67.70;;;;;;5108427;27;20379;-68
2023/01/24 01:00:39;;;;;;;13.17;8.07;;;6.30;67.70;;;;;;5107851;28;20115;-68
2023/01/24 01:03:09;;;;;;;14.57;8.63;;;6.30;67.80;;;;;;5116738;28;20019;-68
2023/01/24 01:05:35;;;;;;;13.60;8.23;;;6.30;67.80;;;;;;5115930;28;20107;-68
2023/01/24 01:08:00;;;;;;;15.10;9.30;;;6.30;67.70;;;;;;5115723;28;20111;-68
2023/01/24 01:10:26;;;;;;;15.20;8.73;;;6.40;67.70;;;;;;5113917;28;20035;-68
2023/01/24 01:12:52;;;;;;;14.03;8.00;;;6.30;67.60;;;;;;5117202;28;20031;-68
2023/01/24 01:15:18;;;;;;;12.83;8.03;;;6.40;67.70;;;;;;5102026;28;20081;-68
2023/01/24 01:17:43;;;;;;;13.93;8.80;;;6.40;67.70;;;;;;5116577;28;20161;-68
2023/01/24 01:20:10;;;;;;;14.60;8.00;;;6.40;67.70;;;;;;5108796;28;20201;-68
2023/01/24 01:22:36;;;;;;;14.03;7.77;;;6.40;67.70;;;;;;5115282;28;20379;-68
2023/01/24 01:25:02;;;;;;;13.80;7.90;;;6.40;67.70;;;;;;5113697;28;20032;-68
2023/01/24 01:27:27;;;;;;;14.63;8.27;;;6.30;67.70;;;;;;5115601;28;20027;-68
2023/01/24 01:29:53;;;;;;;15.07;8.30;;;6.30;67.80;;;;;;5113344;28;20463;-68
2023/01/24 01:32:19;;;;;;;15.43;8.93;;;6.30;67.90;;;;;;5109764;28;20436;-68
2023/01/24 01:34:45;;;;;;;15.00;8.70;;;6.30;67.90;;;;;;5096503;28;20038;-68
2023/01/24 01:37:11;;;;;;;15.83;8.80;;;6.30;67.90;;;;;;5114695;28;20023;-68
2023/01/24 01:39:37;;;;;;;15.00;9.00;;;6.30;67.90;;;;;;5115880;28;20072;-68
2023/01/24 01:42:03;;;;;;;15.30;8.87;;;6.30;67.90;;;;;;5095793;28;20039;-68
2023/01/24 01:44:49;;;;;;;17.17;9.43;;;6.30;68.00;;;;;;5114853;28;20037;-68
2023/01/24 01:47:36;;;;;;;17.13;10.03;;;6.30;68.00;;;;;;5114929;28;20039;-68
2023/01/24 01:50:11;;;;;;;15.27;8.97;;;6.30;68.10;;;;;;5116051;28;20031;-67
2023/01/24 01:52:40;;;;;;;15.77;9.27;;;6.20;68.20;;;;;;5113313;28;20035;-68
2023/01/24 01:55:12;;;;;;;16.43;9.67;;;6.20;68.30;;;;;;5123047;27;20031;-68
2023/01/24 01:57:40;;;;;;;15.03;9.03;;;6.30;68.30;;;;;;5108455;28;20027;-68
2023/01/24 02:00:15;;;;;;;15.93;9.63;;;6.30;68.30;;;;;;5101282;28;20030;-67
2023/01/24 02:02:45;;;;;;;18.30;10.53;;;6.30;68.40;;;;;;5114143;28;20024;-68
2023/01/24 02:05:14;;;;;;;15.73;9.13;;;6.30;68.40;;;;;;5097929;27;20390;-68
2023/01/24 02:08:06;;;;;;;16.03;9.00;;;6.20;68.30;;;;;;5095987;28;20024;-68
2023/01/24 02:13:18;;;;;;;17.97;10.43;;;6.10;68.60;;;;;;5112696;28;20342;-67
2023/01/24 02:16:05;;;;;;;16.13;9.43;;;6.10;68.60;;;;;;5123350;27;20023;-68
2023/01/24 02:18:34;;;;;;;15.90;9.20;;;6.10;68.60;;;;;;5114317;27;20023;-68
2023/01/24 02:21:14;;;;;;;16.27;9.53;;;6.10;68.50;;;;;;5115278;28;20028;-68
2023/01/24 02:23:49;;;;;;;14.83;8.93;;;6.10;68.60;;;;;;5107809;28;20062;-67
2023/01/24 02:26:27;;;;;;;16.93;9.53;;;6.10;68.70;;;;;;5113782;28;20032;-68
2023/01/24 02:29:05;;;;;;;18.70;9.63;;;6.10;68.70;;;;;;5113506;28;20099;-67
2023/01/24 02:31:53;;;;;;;17.53;9.73;;;6.10;68.80;;;;;;5114302;28;20038;-68
2023/01/24 02:34:18;;;;;;;15.73;9.03;;;6.10;68.70;;;;;;5108041;28;20024;-68
2023/01/24 02:36:45;;;;;;;15.60;9.30;;;6.10;68.80;;;;;;5105629;28;20065;-68
2023/01/24 02:39:18;;;;;;;16.17;9.70;;;6.10;68.70;;;;;;5112566;28;20101;-68
2023/01/24 02:41:45;;;;;;;16.83;10.03;;;6.10;68.90;;;;;;5127370;27;20038;-68
2023/01/24 02:44:51;;;;;;;18.57;10.67;;;6.10;69.00;;;;;;5096030;27;20027;-68
2023/01/24 02:47:17;;;;;;;17.80;10.80;;;6.10;69.10;;;;;;5097339;28;20226;-67
2023/01/24 02:49:43;;;;;;;18.47;11.37;;;6.10;69.10;;;;;;5097199;28;20478;-68
2023/01/24 02:54:53;;;;;;;15.97;9.77;;;6.10;69.10;;;;;;5107930;28;20448;-68
2023/01/24 03:00:08;;;;;;;18.70;10.90;;;6.00;69.20;;;;;;5112037;28;20032;-68
2023/01/24 03:02:35;;;;;;;19.38;10.68;;;6.00;69.20;;;;;;5113822;28;20019;-68
2023/01/24 03:05:01;;;;;;;17.17;10.73;;;6.00;69.30;;;;;;5111609;28;20035;-68
2023/01/24 03:07:26;;;;;;;18.13;11.17;;;6.00;69.30;;;;;;5112081;28;20166;-68
2023/01/24 03:09:57;;;;;;;18.33;10.97;;;6.00;69.30;;;;;;5110572;28;20452;-68
2023/01/24 03:34:33;;;;;;;19.73;11.87;;;6.00;69.20;;;;;;5113654;28;20398;-68
2023/01/24 03:37:01;;;;;;;18.57;11.23;;;6.00;69.20;;;;;;5110181;28;20024;-67
2023/01/24 03:42:11;;;;;;;19.33;11.77;;;6.00;69.20;;;;;;5113626;28;20032;-68
2023/01/24 03:44:38;;;;;;;19.23;11.63;;;6.00;69.30;;;;;;5113232;28;20103;-68
2023/01/24 03:47:06;;;;;;;18.73;11.13;;;5.90;69.30;;;;;;5109830;28;20475;-68
2023/01/24 03:52:28;;;;;;;20.60;12.43;;;5.90;69.40;;;;;;5113284;28;20031;-68
2023/01/24 03:54:58;;;;;;;19.07;12.13;;;5.90;69.40;;;;;;5113744;28;20047;-68
2023/01/24 03:57:26;;;;;;;21.23;12.50;;;5.90;69.50;;;;;;5103347;28;20084;-68
2023/01/24 03:59:52;;;;;;;20.00;12.03;;;5.90;69.60;;;;;;5112257;28;20118;-67
2023/01/24 04:02:19;;;;;;;19.63;12.73;;;5.80;69.50;;;;;;5108054;28;20116;-68
2023/01/24 04:07:30;;;;;;;21.07;13.13;;;5.80;69.50;;;;;;5111439;28;20114;-67
2023/01/24 04:10:03;;;;;;;20.77;13.57;;;5.80;69.70;;;;;;5113104;28;20314;-68
2023/01/24 04:12:35;;;;;;;19.90;12.20;;;5.80;69.70;;;;;;5124736;27;20028;-67
2023/01/24 04:15:01;;;;;;;20.20;12.53;;;5.80;69.70;;;;;;5098471;28;20027;-68
2023/01/24 04:17:28;;;;;;;20.23;13.17;;;5.70;69.70;;;;;;5110246;28;20417;-68
2023/01/24 04:19:54;;;;;;;22.07;13.63;;;5.80;69.80;;;;;;5111055;28;20020;-68
2023/01/24 04:22:21;;;;;;;21.40;12.87;;;5.80;69.80;;;;;;5111909;28;20066;-68
2023/01/24 04:24:46;;;;;;;20.60;13.27;;;5.80;69.80;;;;;;5109308;28;20047;-67
2023/01/24 04:27:12;;;;;;;20.70;13.57;;;5.80;69.70;;;;;;5108608;28;20016;-68
2023/01/24 04:29:59;;;;;;;22.37;13.80;;;5.80;69.70;;;;;;5111971;27;20051;-67
2023/01/24 04:32:26;;;;;;;20.63;13.10;;;5.80;69.70;;;;;;5116411;28;20023;-68
2023/01/24 04:34:57;;;;;;;20.73;12.95;;;5.80;69.70;;;;;;5115973;28;20084;-68
2023/01/24 04:37:40;;;;;;;21.93;14.33;;;5.80;69.70;;;;;;5116629;28;20440;-67
2023/01/24 04:40:08;;;;;;;20.83;13.83;;;5.80;69.70;;;;;;5099043;28;20090;-67
2023/01/24 04:42:34;;;;;;;20.87;13.93;;;5.80;69.70;;;;;;5112667;28;20084;-68
2023/01/24 04:45:00;;;;;;;22.90;14.70;;;5.80;69.70;;;;;;5128847;27;20501;-67
2023/01/24 04:47:26;;;;;;;22.77;13.93;;;5.80;69.80;;;;;;5116199;28;20114;-67
2023/01/24 04:49:53;;;;;;;19.93;12.70;;;5.80;69.80;;;;;;5103569;28;20321;-67
2023/01/24 04:52:19;;;;;;;21.60;13.03;;;5.80;69.80;;;;;;5099993;28;20027;-68
2023/01/24 04:54:54;;;;;;;22.27;14.27;;;5.80;69.80;;;;;;5115036;28;20020;-68
2023/01/24 04:57:20;;;;;;;22.57;13.40;;;5.80;69.90;;;;;;5112818;28;20034;-67
2023/01/24 04:59:46;;;;;;;21.80;14.20;;;5.80;69.90;;;;;;5112412;27;20026;-67
2023/01/24 05:02:12;;;;;;;21.47;13.50;;;5.80;69.90;;;;;;5097773;28;20024;-68
2023/01/24 05:04:43;;;;;;;23.60;13.80;;;5.80;69.90;;;;;;5113447;28;20038;-68
2023/01/24 05:07:10;;;;;;;23.97;13.63;;;5.80;70.00;;;;;;5114323;28;20027;-68
2023/01/24 05:09:36;;;;;;;21.53;13.07;;;5.80;70.00;;;;;;5111956;28;20020;-67
2023/01/24 05:12:06;;;;;;;22.13;15.10;;;5.80;70.00;;;;;;5110938;28;20035;-68
2023/01/24 05:14:33;;;;;;;22.80;14.17;;;5.80;70.00;;;;;;5100721;28;20028;-67
2023/01/24 05:16:58;;;;;;;21.10;14.13;;;5.80;70.00;;;;;;5115454;28;20110;-68
2023/01/24 05:19:24;;;;;;;20.30;13.17;;;5.80;70.00;;;;;;5113815;28;20028;-67
2023/01/24 05:21:50;;;;;;;21.63;14.80;;;5.70;70.00;;;;;;5096662;28;20053;-67
2023/01/24 05:24:18;;;;;;;23.23;14.90;;;5.60;70.00;;;;;;5115388;28;20368;-67
2023/01/24 05:26:44;;;;;;;22.83;14.77;;;5.70;70.20;;;;;;5114594;28;20019;-67
2023/01/24 05:29:12;;;;;;;24.63;16.20;;;5.70;70.30;;;;;;5116024;28;20019;-68
2023/01/24 05:31:39;;;;;;;21.53;14.13;;;5.70;70.20;;;;;;5102194;28;20457;-68
2023/01/24 05:34:05;;;;;;;25.47;14.27;;;5.70;70.20;;;;;;5114345;28;20027;-68
2023/01/24 05:36:32;;;;;;;24.40;14.93;;;5.70;70.20;;;;;;5113174;28;20106;-67
2023/01/24 05:38:58;;;;;;;24.57;15.37;;;5.80;70.20;;;;;;5115483;28;20106;-67
2023/01/24 05:41:25;;;;;;;23.87;14.57;;;5.80;70.20;;;;;;5112235;28;20076;-67
2023/01/24 05:43:52;;;;;;;21.53;14.27;;;5.80;70.20;;;;;;5113268;28;20030;-68
2023/01/24 05:46:23;;;;;;;22.57;14.13;;;5.80;70.20;;;;;;5113741;28;20027;-67
2023/01/24 05:49:04;;;;;;;;;;;5.70;70.10;;;;;;5117643;27;20030;-68
2023/01/24 05:51:32;;;;;;;20.90;13.13;;;5.70;70.20;;;;;;5094319;28;19920;-67
2023/01/24 05:53:58;;;;;;;22.57;14.23;;;5.70;70.20;;;;;;5103186;28;20038;-68
2023/01/24 05:56:42;;;;;;;21.93;13.83;;;5.70;70.20;;;;;;5108295;28;20092;-66
2023/01/24 05:59:10;;;;;;;21.53;13.83;;;5.70;70.20;;;;;;5108094;28;20028;-68
2023/01/24 06:01:36;;;;;;;22.03;14.23;;;5.60;70.20;;;;;;5110864;28;20077;-68
2023/01/24 06:04:02;;;;;;;26.07;15.40;;;5.60;70.30;;;;;;5111666;28;20023;-68
2023/01/24 06:06:28;;;;;;;22.07;14.33;;;5.60;70.30;;;;;;5112107;28;20015;-68
2023/01/24 06:08:53;;;;;;;21.57;13.90;;;5.60;70.30;;;;;;5105725;28;20407;-68
2023/01/24 06:11:24;;;;;;;21.53;13.37;;;5.60;70.30;;;;;;5106280;28;20027;-68
2023/01/24 06:13:52;;;;;;;23.93;13.80;;;5.60;70.30;;;;;;5092476;28;20031;-68
2023/01/24 06:16:21;;;;;;;23.73;14.13;;;5.60;70.40;;;;;;5109202;28;20062;-68
2023/01/24 06:18:48;;;;;;;22.33;14.43;;;5.50;70.30;;;;;;5112174;28;20055;-69
2023/01/24 06:21:14;;;;;;;22.90;14.57;;;5.50;70.30;;;;;;5112546;28;20470;-68
2023/01/24 06:23:40;;;;;;;23.17;13.00;;;5.50;70.30;;;;;;5107263;28;20028;-68
2023/01/24 06:26:10;;;;;;;21.90;13.67;;;5.50;70.30;;;;;;5112099;28;20023;-67
2023/01/24 06:28:38;;;;;;;22.47;14.70;;;5.50;70.30;;;;;;5113124;28;20024;-68
2023/01/24 06:31:17;;;;;;;22.73;13.40;;;5.60;70.40;;;;;;5095230;28;20023;-68
2023/01/24 06:34:00;;;;;;;19.53;12.97;;;5.50;70.40;;;;;;5110725;27;20020;-69
2023/01/24 06:36:56;;;;;;;22.90;14.30;;;5.50;70.40;;;;;;5113643;27;20023;-69
2023/01/24 06:39:22;;;;;;;19.63;12.33;;;5.50;70.40;;;;;;5114812;28;20127;-69
2023/01/24 06:41:48;;;;;;;22.17;13.47;;;5.50;70.40;;;;;;5112592;27;20074;-69
2023/01/24 06:44:14;;;;;;;23.10;14.17;;;5.50;70.40;;;;;;5104258;27;20016;-69
2023/01/24 06:46:40;;;;;;;19.23;12.60;;;5.50;70.50;;;;;;5109559;27;20027;-69
2023/01/24 06:49:06;;;;;;;23.27;13.47;;;5.50;70.60;;;;;;5127825;27;20508;-69
2023/01/24 06:51:32;;;;;;;24.07;14.07;;;5.50;70.60;;;;;;5111301;27;20182;-69
2023/01/24 06:53:59;;;;;;;26.83;15.00;;;5.50;70.60;;;;;;5087520;27;20143;-69
2023/01/24 06:56:24;;;;;;;24.20;14.67;;;5.50;70.60;;;;;;5094744;27;20036;-69
2023/01/24 06:58:50;;;;;;;22.50;14.47;;;5.50;70.50;;;;;;5113749;27;20035;-69
2023/01/24 07:01:16;;;;;;;24.37;15.37;;;5.60;70.60;;;;;;5120185;27;20023;-69
2023/01/24 07:03:42;;;;;;;24.07;13.90;;;5.50;70.50;;;;;;5108700;27;20031;-69
2023/01/24 07:06:07;;;;;;;25.30;14.60;;;5.60;70.60;;;;;;5122349;27;20075;-69
2023/01/24 07:08:34;;;;;;;23.30;14.67;;;5.50;70.60;;;;;;5109941;27;20036;-69
2023/01/24 07:11:00;;;;;;;23.57;14.70;;;5.60;70.60;;;;;;5099520;27;20133;-69
2023/01/24 07:13:26;;;;;;;23.60;14.33;;;5.50;70.50;;;;;;5107765;27;20051;-69
2023/01/24 07:15:51;;;;;;;23.23;14.93;;;5.50;70.60;;;;;;5077809;28;20047;-69
2023/01/24 07:18:18;;;;;;;24.43;14.67;;;5.50;70.60;;;;;;5110537;28;20027;-70
2023/01/24 07:20:45;;;;;;;22.27;13.80;;;5.50;70.60;;;;;;5112004;28;20018;-69
2023/01/24 07:23:37;;;;;;;21.20;12.90;;;5.60;70.60;;;;;;5113144;28;20027;-70
2023/01/24 07:26:03;;;;;;;23.80;14.32;;;5.60;70.50;;;;;;5117947;28;20028;-69
2023/01/24 07:28:29;;;;;;;24.73;14.80;;;5.70;70.60;;;;;;5112983;28;20035;-68
2023/01/24 07:30:55;;;;;;;25.90;15.67;;;5.70;70.50;;;;;;5112282;28;20028;-69
2023/01/24 07:33:21;;;;;;;25.80;16.43;;;5.60;70.40;;;;;;5111889;28;20117;-68
2023/01/24 07:35:47;;;;;;;25.60;15.50;;;5.60;70.50;;;;;;5113679;28;20410;-69
2023/01/24 07:38:14;;;;;;;26.40;15.90;;;5.60;70.60;;;;;;5112934;28;20361;-69
2023/01/24 07:40:41;;;;;;;22.17;14.53;;;5.50;70.70;;;;;;5113018;28;20057;-70
2023/01/24 07:43:07;;;;;;;23.47;15.27;;;5.50;70.70;;;;;;5113391;28;20104;-70
2023/01/24 07:45:35;;;;;;;25.00;15.47;;;5.50;70.70;;;;;;5114123;28;20401;-70
2023/01/24 07:48:01;;;;;;;23.37;14.67;;;5.50;70.60;;;;;;5112679;28;20059;-71
2023/01/24 07:50:30;;;;;;;23.63;14.60;;;5.50;71.10;;;;;;5089172;28;21296;-69
2023/01/24 07:52:56;;;;;;;22.03;14.83;;;5.50;70.60;;;;;;5105733;28;20339;-69
2023/01/24 07:55:22;;;;;;;22.23;14.60;;;5.50;70.60;;;;;;5112504;27;20031;-69
2023/01/24 07:57:49;;;;;;;22.97;15.10;;;5.50;70.60;;;;;;5106661;28;20024;-69
2023/01/24 08:00:15;;;;;;;22.43;14.97;;;5.50;70.70;;;;;;5113801;28;20035;-69
2023/01/24 08:02:42;;;;;;;23.33;15.70;;;5.50;70.70;;;;;;5105127;28;20064;-69
2023/01/24 08:05:08;;;;;;;22.27;13.83;;;5.50;70.70;;;;;;5113546;28;20028;-69
2023/01/24 08:07:34;;;;;;;24.13;15.13;;;5.50;70.60;;;;;;5096290;28;20402;-69
2023/01/24 08:10:00;;;;;;;21.93;14.27;;;5.50;70.60;;;;;;5100646;28;20127;-69
2023/01/24 08:12:28;;;;;;;24.20;15.40;;;5.50;70.60;;;;;;5115905;28;20031;-69
2023/01/24 08:14:54;;;;;;;23.30;14.13;;;5.50;70.60;;;;;;5102459;28;20039;-69
2023/01/24 08:17:19;;;;;;;25.10;15.13;;;5.50;70.60;;;;;;5116381;28;20015;-69
2023/01/24 08:19:45;;;;;;;24.83;14.93;;;5.50;70.60;;;;;;5116840;28;20042;-70
2023/01/24 08:22:11;;;;;;;24.50;14.97;;;5.50;70.60;;;;;;5114099;28;20489;-70
2023/01/24 08:24:38;;;;;;;23.37;13.93;;;5.50;70.50;;;;;;5102466;28;20024;-69
2023/01/24 08:27:05;;;;;;;24.43;14.57;;;5.50;70.60;;;;;;5118085;27;20040;-69
2023/01/24 08:29:31;;;;;;;24.33;14.93;;;5.50;70.60;;;;;;5096530;28;20032;-69
2023/01/24 08:31:58;;;;;;;25.70;15.37;;;5.50;70.70;;;;;;5116129;27;20110;-69
2023/01/24 08:34:24;;;;;;;23.60;14.53;;;5.50;70.70;;;;;;5102715;27;20032;-69
2023/01/24 08:36:49;;;;;;;21.80;13.87;;;5.50;70.70;;;;;;5118637;27;20485;-69
2023/01/24 08:39:15;;;;;;;22.97;15.20;;;5.50;70.70;;;;;;5117013;27;20106;-69
2023/01/24 08:41:46;;;;;;;23.43;13.97;;;5.40;70.60;;;;;;5115502;28;20071;-69
2023/01/24 08:44:15;;;;;;;22.57;13.83;;;5.50;70.60;;;;;;5110201;27;20077;-68
2023/01/24 08:46:42;;;;;;;22.30;14.40;;;5.50;70.60;;;;;;5111433;28;20093;-68
2023/01/24 08:49:10;;;;;;;23.17;14.87;;;5.50;71.30;;;;;;5109819;27;20028;-69
2023/01/24 08:51:36;;;;;;;23.00;14.07;;;5.40;70.60;;;;;;5110985;27;20031;-69
2023/01/24 08:54:04;;;;;;;23.47;15.40;;;5.40;70.70;;;;;;5121770;27;20447;-68
2023/01/24 08:56:30;;;;;;;23.70;15.30;;;5.40;70.90;;;;;;5099159;28;20390;-69
2023/01/24 08:58:56;;;;;;;23.53;15.73;;;5.30;70.80;;;;;;5112110;27;20040;-69
2023/01/24 09:01:21;;;;;;;23.30;14.53;;;5.30;70.90;;;;;;5120598;27;20027;-69
2023/01/24 09:03:48;;;;;;;23.17;13.87;;;5.40;70.90;;;;;;5120644;27;20024;-69
2023/01/24 09:06:14;;;;;;;21.60;13.50;;;5.40;70.90;;;;;;5122632;27;20506;-68
2023/01/24 09:08:40;;;;;;;22.87;14.47;;;5.40;70.80;;;;;;5113434;27;20028;-70
2023/01/24 09:11:06;;;;;;;22.63;14.10;;;5.40;70.70;;;;;;5101642;28;20024;-68
2023/01/24 09:13:32;;;;;;;23.80;14.30;;;5.40;70.70;;;;;;5113592;27;20016;-69
2023/01/24 09:15:58;;;;;;;22.33;14.20;;;5.50;70.60;;;;;;5112966;28;20501;-69
2023/01/24 09:18:25;;;;;;;22.70;14.00;;;5.50;70.90;;;;;;5113826;28;20035;-69
2023/01/24 09:20:50;;;;;;;22.83;14.07;;;5.50;70.40;;;;;;5115754;28;20030;-68
2023/01/24 09:23:16;;;;;;;23.13;13.43;;;5.50;70.50;;;;;;5113540;28;20032;-69
2023/01/24 09:25:49;;;;;;;21.03;13.50;;;5.50;70.50;;;;;;5109268;27;20051;-69
2023/01/24 09:28:16;;;;;;;22.63;14.67;;;5.50;70.50;;;;;;5113100;27;20016;-67
2023/01/24 09:30:41;;;;;;;22.17;14.20;;;5.50;70.50;;;;;;5110090;27;20051;-69
2023/01/24 09:33:07;;;;;;;21.37;13.73;;;5.50;70.40;;;;;;5107252;27;20447;-69
2023/01/24 09:35:33;;;;;;;22.07;13.70;;;5.50;70.40;;;;;;5096742;28;20043;-68
2023/01/24 09:38:00;;;;;;;21.10;13.17;;;5.50;70.40;;;;;;5111322;27;20023;-68
2023/01/24 09:40:29;;;;;;;24.80;14.93;;;5.60;70.40;;;;;;5110512;27;20106;-69
2023/01/24 09:43:08;;;;;;;22.27;14.07;;;5.60;70.30;;;;;;5123977;27;20079;-68
2023/01/24 09:45:39;;;;;;;23.77;14.80;;;5.60;70.20;;;;;;5096270;28;20024;-67
2023/01/24 09:48:11;;;;;;;21.60;13.55;;;5.70;70.20;;;;;;5125902;27;20023;-68
2023/01/24 09:50:44;;;;;;;22.93;13.77;;;5.70;70.20;;;;;;5121186;27;20023;-67
2023/01/24 09:53:20;;;;;;;23.33;15.40;;;5.70;70.20;;;;;;5114677;27;20456;-67
2023/01/24 09:55:47;;;;;;;27.03;14.40;;;5.70;70.20;;;;;;5125939;27;20039;-68
2023/01/24 09:58:34;;;;;;;22.50;13.43;;;5.70;70.10;;;;;;5111858;27;20086;-68
2023/01/24 10:01:08;;;;;;;21.83;14.30;;;5.70;70.10;;;;;;5120022;27;20031;-68
2023/01/24 10:03:36;;;;;;;20.63;13.37;;;5.70;70.10;;;;;;5112751;27;20343;-68
2023/01/24 10:06:26;;;;;;;20.53;12.97;;;5.70;70.10;;;;;;5114764;27;20027;-68
2023/01/24 10:08:55;;;;;;;22.37;14.93;;;5.70;70.00;;;;;;5120262;27;20088;-67
2023/01/24 10:11:40;;;;;;;22.13;14.50;;;5.70;70.00;;;;;;5120992;27;20420;-68
2023/01/24 10:14:12;;;;;;;21.60;14.73;;;5.70;70.00;;;;;;5110398;28;20076;-67
2023/01/24 10:17:04;;;;;;;20.47;13.50;;;5.70;70.00;;;;;;5128676;27;20040;-67
2023/01/24 10:19:36;;;;;;;20.00;12.35;;;5.70;69.90;;;;;;5109092;28;20040;-68
2023/01/24 10:22:30;;;;;;;19.67;12.95;;;5.70;70.50;;;;;;5110383;27;20045;-69
2023/01/24 10:25:22;;;;;;;21.13;12.63;;;5.70;69.70;;;;;;5115075;28;20096;-69
2023/01/24 10:27:51;;;;;;;21.13;13.93;;;5.70;69.70;;;;;;5115470;27;20062;-69
2023/01/24 10:30:26;;;;;;;20.50;13.77;;;5.70;69.80;;;;;;5113488;28;20061;-69
2023/01/24 10:32:58;;;;;;;21.57;13.17;;;5.70;69.70;;;;;;5115231;27;20114;-70
2023/01/24 10:35:43;;;;;;;19.23;12.07;;;5.70;69.70;;;;;;5114158;28;20454;-69
2023/01/24 10:38:13;;;;;;;21.07;12.83;;;5.60;69.70;;;;;;5116927;27;20032;-68
2023/01/24 10:41:22;;;;;;;21.03;13.20;;;5.70;69.80;;;;;;5119383;27;20032;-69
2023/01/24 10:43:59;;;;;;;19.80;12.53;;;5.60;69.70;;;;;;5091111;28;20372;-68
2023/01/24 10:46:49;;;;;;;20.57;13.97;;;5.60;69.80;;;;;;5109966;27;20488;-68
2023/01/24 10:49:22;;;;;;;18.93;12.57;;;5.60;69.80;;;;;;5102325;28;20038;-69
2023/01/24 10:52:17;;;;;;;20.53;13.67;;;5.60;69.90;;;;;;5114320;28;20024;-69
2023/01/24 10:54:53;;;;;;;19.40;12.70;;;5.60;69.70;;;;;;5104704;28;20024;-69
2023/01/24 10:57:38;;;;;;;19.37;12.83;;;5.60;69.70;;;;;;5109619;27;20330;-69
2023/01/24 11:00:10;;;;;;;20.40;13.40;;;5.70;69.70;;;;;;5106446;28;20012;-70
2023/01/24 11:02:36;;;;;;;19.90;12.98;;;5.70;69.70;;;;;;5128404;27;20134;-69
2023/01/24 11:05:06;;;;;;;22.90;14.60;;;5.70;69.60;;;;;;5116666;27;20015;-69
2023/01/24 11:07:38;;;;;;;18.50;12.37;;;5.70;69.50;;;;;;5095655;28;20039;-69
2023/01/24 11:10:14;;;;;;;18.73;12.13;;;5.70;69.50;;;;;;5112930;28;20061;-70
2023/01/24 11:12:57;;;;;;;18.73;11.87;;;5.70;69.30;;;;;;5116966;27;20031;-69
2023/01/24 11:15:32;;;;;;;19.20;12.30;;;5.70;69.50;;;;;;5115892;27;20028;-69
2023/01/24 11:18:11;;;;;;;21.60;12.13;;;5.70;69.50;;;;;;5106865;28;20111;-69
2023/01/24 11:20:36;;;;;;;21.83;12.63;;;5.70;69.40;;;;;;5108454;28;20028;-70
2023/01/24 11:23:18;;;;;;;18.57;11.23;;;5.70;69.40;;;;;;5116353;28;20417;-69
2023/01/24 11:25:55;;;;;;;19.42;12.70;;;5.70;69.30;;;;;;5110226;28;20012;-68
2023/01/24 11:28:28;;;;;;;19.20;12.17;;;5.70;69.30;;;;;;5112217;28;20031;-68
2023/01/24 11:30:56;;;;;;;18.57;12.53;;;5.80;69.30;;;;;;5115614;28;20119;-68
2023/01/24 11:33:38;;;;;;;16.40;10.40;;;5.80;69.30;;;;;;5109434;27;20348;-69
2023/01/24 11:36:20;;;;;;;16.73;11.60;;;5.80;69.20;;;;;;5103458;28;20036;-69
2023/01/24 11:38:46;;;;;;;18.77;11.98;;;5.80;69.10;;;;;;5098142;28;20024;-70
2023/01/24 11:41:32;;;;;;;17.83;11.03;;;5.80;69.00;;;;;;5118117;27;20345;-68
2023/01/24 11:44:13;;;;;;;17.67;10.20;;;5.80;69.00;;;;;;5085384;28;20023;-69
2023/01/24 11:46:45;;;;;;;17.13;10.40;;;5.80;69.00;;;;;;5115080;28;20031;-68
2023/01/24 11:49:17;;;;;;;15.40;10.53;;;5.80;68.90;;;;;;5116593;28;20440;-68
2023/01/24 11:52:14;;;;;;;15.83;10.70;;;5.80;68.80;;;;;;5104620;27;20032;-68
2023/01/24 11:54:40;;;;;;;15.60;10.13;;;5.80;68.70;;;;;;5112498;27;20028;-68
2023/01/24 11:57:25;;;;;;;18.20;11.27;;;5.70;68.80;;;;;;5113756;28;20050;-69
2023/01/24 12:00:25;;;;;;;17.10;10.23;;;5.70;68.80;;;;;;5108422;28;20092;-69
2023/01/24 12:02:57;;;;;;;17.80;10.50;;;5.70;68.80;;;;;;5097833;28;20052;-69
2023/01/24 12:05:28;;;;;;;18.13;11.13;;;5.70;68.80;;;;;;5110367;28;20370;-68
2023/01/24 12:08:00;;;;;;;16.52;10.27;;;5.80;68.80;;;;;;5112014;28;20036;-68
2023/01/24 12:10:51;;;;;;;16.20;9.43;;;5.80;68.70;;;;;;5108163;28;20426;-68
2023/01/24 12:13:26;;;;;;;16.20;9.83;;;5.80;68.70;;;;;;5105123;28;20043;-68
2023/01/24 12:16:12;;;;;;;17.70;11.17;;;5.80;68.60;;;;;;5113348;28;20430;-67
2023/01/24 12:18:50;;;;;;;17.10;10.73;;;5.80;68.60;;;;;;5115580;28;20035;-68
2023/01/24 12:21:16;;;;;;;16.37;10.27;;;5.90;68.50;;;;;;5111454;27;20039;-68
2023/01/24 12:24:11;;;;;;;15.43;9.67;;;5.90;68.40;;;;;;5109917;28;20031;-68
2023/01/24 12:26:43;;;;;;;16.33;9.80;;;5.90;68.20;;;;;;5107985;28;20042;-68
2023/01/24 12:29:23;;;;;;;14.93;9.77;;;5.90;68.30;;;;;;5113715;28;20456;-69
2023/01/24 12:32:11;;;;;;;15.47;10.03;;;5.90;68.90;;;;;;5112912;28;20028;-68
2023/01/24 12:35:15;;;;;;;14.47;9.27;;;5.90;68.30;;;;;;5115119;28;20471;-68
2023/01/24 12:38:11;;;;;;;15.40;8.83;;;5.90;68.30;;;;;;5121015;27;20023;-68
2023/01/24 12:40:55;;;;;;;14.60;9.27;;;5.90;68.20;;;;;;5077693;28;20458;-69
2023/01/24 12:44:03;;;;;;;15.57;10.13;;;5.90;68.20;;;;;;5114436;28;20050;-69
2023/01/24 12:46:42;;;;;;;14.40;8.80;;;5.90;68.10;;;;;;5102697;28;20032;-69
2023/01/24 12:49:38;;;;;;;13.70;9.30;;;5.90;68.20;;;;;;5103015;28;20294;-69
2023/01/24 12:52:47;;;;;;;15.60;9.60;;;5.90;68.10;;;;;;5113637;28;20099;-69
2023/01/24 12:55:25;;;;;;;14.70;9.07;;;5.90;68.20;;;;;;5127128;27;20042;-69
2023/01/24 12:57:59;;;;;;;15.07;9.93;;;5.90;68.20;;;;;;5109771;28;20042;-69
2023/01/24 13:00:36;;;;;;;15.07;10.07;;;5.90;68.20;;;;;;5112126;28;20171;-69
2023/01/24 13:03:26;;;;;;;14.37;8.93;;;5.90;68.20;;;;;;5106965;28;20063;-68
2023/01/24 13:06:04;;;;;;;15.73;9.67;;;5.90;68.20;;;;;;5111160;28;20467;-69
2023/01/24 13:08:33;;;;;;;13.27;8.40;;;5.90;68.20;;;;;;5108497;28;20047;-69
2023/01/24 13:11:19;;;;;;;14.70;9.40;;;5.90;68.20;;;;;;5095118;28;20341;-69
2023/01/24 13:14:00;;;;;;;14.90;10.03;;;5.90;68.10;;;;;;5113489;28;20080;-69
2023/01/24 13:16:49;;;;;;;14.45;9.07;;;5.90;68.00;;;;;;5117895;27;20024;-69
2023/01/24 13:19:33;;;;;;;14.57;8.53;;;5.90;68.10;;;;;;5092806;28;20403;-68
2023/01/24 13:22:27;;;;;;;13.40;8.70;;;5.90;68.10;;;;;;5113261;28;20039;-69
2023/01/24 13:25:27;;;;;;;14.70;9.00;;;5.90;68.10;;;;;;5111868;27;20035;-68
2023/01/24 13:28:03;;;;;;;14.87;9.27;;;5.90;68.20;;;;;;5106989;27;20024;-69
2023/01/24 13:30:54;;;;;;;16.60;9.33;;;5.80;68.10;;;;;;5108406;27;20035;-68
2023/01/24 13:33:30;;;;;;;16.15;9.65;;;5.70;68.30;;;;;;5109564;27;20032;-69
2023/01/24 13:35:56;;;;;;;13.77;8.97;;;5.80;68.40;;;;;;5110086;28;20042;-68
2023/01/24 13:38:25;;;;;;;14.83;9.03;;;5.70;68.30;;;;;;5125571;27;20023;-69
2023/01/24 13:41:05;;;;;;;13.60;8.83;;;5.70;68.20;;;;;;5109001;28;20526;-69
2023/01/24 13:43:54;;;;;;;14.57;8.13;;;5.80;68.20;;;;;;5110632;28;20404;-68